sensor_id;sensor_type;location;lat;lon;timestamp;temperature;humidity
26272;DHT22;13997;48.902;12.472;2022-09-09T00:03:53;409.70;2355.20
26272;DHT22;13997;48.902;12.472;2022-09-09T00:06:27;409.60;2355.20
26272;DHT22;13997;48.902;12.472;2022-09-09T00:09:12;409.60;2355.20
26272;DHT22;13997;48.902;12.472;2022-09-09T00:11:53;409.60;2355.20
26272;DHT22;13997;48.902;12.472;2022-09-09T00:14:50;384.90;2329.60
26272;DHT22;13997;48.902;12.472;2022-09-09T00:19:56;384.80;2329.60
26272;DHT22;13997;48.902;12.472;2022-09-09T00:22:28;384.80;2329.60
26272;DHT22;13997;48.902;12.472;2022-09-09T00:25:06;384.80;2329.60
26272;DHT22;13997;48.902;12.472;2022-09-09T00:27:55;384.70;2329.60
26272;DHT22;13997;48.902;12.472;2022-09-09T00:30:26;384.70;2329.60
26272;DHT22;13997;48.902;12.472;2022-09-09T00:32:59;384.70;2329.60
26272;DHT22;13997;48.902;12.472;2022-09-09T00:35:34;384.70;2329.60
26272;DHT22;13997;48.902;12.472;2022-09-09T00:38:09;384.60;2329.60
26272;DHT22;13997;48.902;12.472;2022-09-09T00:40:50;384.60;2329.60
26272;DHT22;13997;48.902;12.472;2022-09-09T00:43:29;384.50;2329.60
26272;DHT22;13997;48.902;12.472;2022-09-09T00:46:23;384.50;2329.60
26272;DHT22;13997;48.902;12.472;2022-09-09T00:49:10;384.50;2329.60
26272;DHT22;13997;48.902;12.472;2022-09-09T00:59:48;384.40;2329.60
26272;DHT22;13997;48.902;12.472;2022-09-09T01:02:25;384.40;2329.60
26272;DHT22;13997;48.902;12.472;2022-09-09T01:04:52;384.40;2329.60
26272;DHT22;13997;48.902;12.472;2022-09-09T01:07:18;384.40;2329.60
26272;DHT22;13997;48.902;12.472;2022-09-09T01:09:56;384.40;2329.60
26272;DHT22;13997;48.902;12.472;2022-09-09T01:12:34;384.40;2329.60
26272;DHT22;13997;48.902;12.472;2022-09-09T01:15:10;384.30;2329.60
26272;DHT22;13997;48.902;12.472;2022-09-09T01:28:27;384.20;2329.60
26272;DHT22;13997;48.902;12.472;2022-09-09T01:30:54;384.10;2329.60
26272;DHT22;13997;48.902;12.472;2022-09-09T01:33:20;384.10;2329.60
26272;DHT22;13997;48.902;12.472;2022-09-09T01:35:57;384.10;2329.60
26272;DHT22;13997;48.902;12.472;2022-09-09T01:38:26;384.10;2329.60
26272;DHT22;13997;48.902;12.472;2022-09-09T01:40:53;384.00;2329.60
26272;DHT22;13997;48.902;12.472;2022-09-09T01:43:23;384.00;2329.60
26272;DHT22;13997;48.902;12.472;2022-09-09T01:45:52;384.00;2329.60
26272;DHT22;13997;48.902;12.472;2022-09-09T01:48:20;384.00;2329.60
26272;DHT22;13997;48.902;12.472;2022-09-09T01:50:47;384.00;2329.60
26272;DHT22;13997;48.902;12.472;2022-09-09T01:53:14;384.00;2329.60
26272;DHT22;13997;48.902;12.472;2022-09-09T01:55:53;359.30;2329.60
26272;DHT22;13997;48.902;12.472;2022-09-09T01:58:44;359.30;2329.60
26272;DHT22;13997;48.902;12.472;2022-09-09T02:01:15;359.30;2329.60
26272;DHT22;13997;48.902;12.472;2022-09-09T02:03:47;359.30;2329.60
26272;DHT22;13997;48.902;12.472;2022-09-09T02:06:37;359.30;2329.60
26272;DHT22;13997;48.902;12.472;2022-09-09T02:09:10;359.20;2329.60
26272;DHT22;13997;48.902;12.472;2022-09-09T02:11:38;359.20;2329.60
26272;DHT22;13997;48.902;12.472;2022-09-09T03:13:24;359.20;2329.60
26272;DHT22;13997;48.902;12.472;2022-09-09T03:20:43;358.80;2329.60
26272;DHT22;13997;48.902;12.472;2022-09-09T03:23:09;358.70;2329.60
26272;DHT22;13997;48.902;12.472;2022-09-09T03:25:34;358.60;2329.60
26272;DHT22;13997;48.902;12.472;2022-09-09T03:28:01;358.70;2329.60
26272;DHT22;13997;48.902;12.472;2022-09-09T03:30:27;358.60;2329.60
26272;DHT22;13997;48.902;12.472;2022-09-09T03:32:53;358.60;2329.60
26272;DHT22;13997;48.902;12.472;2022-09-09T03:35:21;358.60;2329.60
26272;DHT22;13997;48.902;12.472;2022-09-09T03:37:46;358.60;2329.60
26272;DHT22;13997;48.902;12.472;2022-09-09T03:40:12;358.50;2329.60
26272;DHT22;13997;48.902;12.472;2022-09-09T03:42:38;358.50;2329.60
26272;DHT22;13997;48.902;12.472;2022-09-09T03:45:09;358.50;2329.60
26272;DHT22;13997;48.902;12.472;2022-09-09T03:47:35;358.50;2329.60
26272;DHT22;13997;48.902;12.472;2022-09-09T03:50:01;358.50;2329.60
26272;DHT22;13997;48.902;12.472;2022-09-09T03:52:29;358.50;2329.60
26272;DHT22;13997;48.902;12.472;2022-09-09T03:54:56;358.50;2329.60
26272;DHT22;13997;48.902;12.472;2022-09-09T03:57:22;358.50;2329.60
26272;DHT22;13997;48.902;12.472;2022-09-09T03:59:48;358.50;2329.60
26272;DHT22;13997;48.902;12.472;2022-09-09T04:02:13;358.40;2329.60
26272;DHT22;13997;48.902;12.472;2022-09-09T04:04:39;358.40;2329.60
26272;DHT22;13997;48.902;12.472;2022-09-09T04:07:05;358.40;2329.60
26272;DHT22;13997;48.902;12.472;2022-09-09T04:09:32;358.40;2329.60
26272;DHT22;13997;48.902;12.472;2022-09-09T04:11:58;358.40;2329.60
26272;DHT22;13997;48.902;12.472;2022-09-09T04:14:23;358.40;2329.60
26272;DHT22;13997;48.902;12.472;2022-09-09T04:16:52;358.40;2329.60
26272;DHT22;13997;48.902;12.472;2022-09-09T04:19:18;358.40;2329.60
26272;DHT22;13997;48.902;12.472;2022-09-09T04:21:44;358.40;2329.60
26272;DHT22;13997;48.902;12.472;2022-09-09T04:24:10;358.40;2329.60
26272;DHT22;13997;48.902;12.472;2022-09-09T04:26:36;358.40;2329.60
26272;DHT22;13997;48.902;12.472;2022-09-09T04:29:03;358.40;2329.60
26272;DHT22;13997;48.902;12.472;2022-09-09T04:31:29;358.40;2329.60
26272;DHT22;13997;48.902;12.472;2022-09-09T04:33:54;358.40;2329.60
26272;DHT22;13997;48.902;12.472;2022-09-09T04:36:20;358.40;2329.60
26272;DHT22;13997;48.902;12.472;2022-09-09T04:38:46;358.40;2329.60
26272;DHT22;13997;48.902;12.472;2022-09-09T04:41:13;358.40;2329.60
26272;DHT22;13997;48.902;12.472;2022-09-09T04:43:39;358.40;2329.60
26272;DHT22;13997;48.902;12.472;2022-09-09T04:46:05;358.40;2329.60
26272;DHT22;13997;48.902;12.472;2022-09-09T04:48:31;358.40;2329.60
26272;DHT22;13997;48.902;12.472;2022-09-09T04:50:59;358.40;2329.60
26272;DHT22;13997;48.902;12.472;2022-09-09T04:53:25;358.40;2329.60
26272;DHT22;13997;48.902;12.472;2022-09-09T04:56:05;358.40;2329.60
26272;DHT22;13997;48.902;12.472;2022-09-09T04:58:32;358.40;2329.60
26272;DHT22;13997;48.902;12.472;2022-09-09T05:01:07;358.40;2329.60
26272;DHT22;13997;48.902;12.472;2022-09-09T05:03:33;358.40;2329.60
26272;DHT22;13997;48.902;12.472;2022-09-09T05:06:06;358.40;2329.60
26272;DHT22;13997;48.902;12.472;2022-09-09T05:08:33;358.40;2329.60
26272;DHT22;13997;48.902;12.472;2022-09-09T05:10:59;358.40;2329.60
26272;DHT22;13997;48.902;12.472;2022-09-09T05:13:26;358.40;2329.60
26272;DHT22;13997;48.902;12.472;2022-09-09T05:15:52;358.40;2329.60
26272;DHT22;13997;48.902;12.472;2022-09-09T05:18:18;358.40;2329.60
26272;DHT22;13997;48.902;12.472;2022-09-09T05:20:44;358.40;2329.60
26272;DHT22;13997;48.902;12.472;2022-09-09T05:23:09;358.40;2329.60
26272;DHT22;13997;48.902;12.472;2022-09-09T05:25:39;358.40;2329.60
26272;DHT22;13997;48.902;12.472;2022-09-09T05:28:06;358.50;2329.60
26272;DHT22;13997;48.902;12.472;2022-09-09T05:30:33;358.50;2329.60
26272;DHT22;13997;48.902;12.472;2022-09-09T05:32:59;358.50;2329.60
26272;DHT22;13997;48.902;12.472;2022-09-09T05:35:25;358.60;2329.60
26272;DHT22;13997;48.902;12.472;2022-09-09T05:37:51;358.60;2329.60
26272;DHT22;13997;48.902;12.472;2022-09-09T05:40:16;358.60;2329.60
26272;DHT22;13997;48.902;12.472;2022-09-09T05:42:42;358.60;2329.60
26272;DHT22;13997;48.902;12.472;2022-09-09T05:45:08;358.60;2329.60
26272;DHT22;13997;48.902;12.472;2022-09-09T05:47:35;358.60;2329.60
26272;DHT22;13997;48.902;12.472;2022-09-09T05:50:03;358.60;2329.60
26272;DHT22;13997;48.902;12.472;2022-09-09T05:52:28;358.60;2329.60
26272;DHT22;13997;48.902;12.472;2022-09-09T05:54:54;358.60;2329.60
26272;DHT22;13997;48.902;12.472;2022-09-09T05:57:20;358.60;2329.60
26272;DHT22;13997;48.902;12.472;2022-09-09T05:59:46;358.60;2329.60
26272;DHT22;13997;48.902;12.472;2022-09-09T06:02:12;358.60;2329.60
26272;DHT22;13997;48.902;12.472;2022-09-09T06:04:38;358.60;2329.60
26272;DHT22;13997;48.902;12.472;2022-09-09T06:07:04;358.60;2329.60
26272;DHT22;13997;48.902;12.472;2022-09-09T06:09:30;358.60;2329.60
26272;DHT22;13997;48.902;12.472;2022-09-09T06:11:56;358.60;2329.60
26272;DHT22;13997;48.902;12.472;2022-09-09T06:14:23;358.70;2329.60
26272;DHT22;13997;48.902;12.472;2022-09-09T06:16:51;358.70;2329.60
26272;DHT22;13997;48.902;12.472;2022-09-09T06:19:16;358.70;2329.60
26272;DHT22;13997;48.902;12.472;2022-09-09T06:21:42;358.70;2329.60
26272;DHT22;13997;48.902;12.472;2022-09-09T06:24:10;358.70;2329.60
26272;DHT22;13997;48.902;12.472;2022-09-09T06:26:38;358.70;2329.60
26272;DHT22;13997;48.902;12.472;2022-09-09T06:29:07;358.70;2329.60
26272;DHT22;13997;48.902;12.472;2022-09-09T06:31:34;358.70;2329.60
26272;DHT22;13997;48.902;12.472;2022-09-09T06:34:05;358.90;2329.60
26272;DHT22;13997;48.902;12.472;2022-09-09T06:41:26;384.10;2329.60
26272;DHT22;13997;48.902;12.472;2022-09-09T06:43:52;384.20;2329.60
26272;DHT22;13997;48.902;12.472;2022-09-09T06:46:19;384.40;2329.60
26272;DHT22;13997;48.902;12.472;2022-09-09T06:48:47;384.60;2329.60
26272;DHT22;13997;48.902;12.472;2022-09-09T06:51:20;384.80;2329.60
26272;DHT22;13997;48.902;12.472;2022-09-09T06:53:50;384.90;2329.60
26272;DHT22;13997;48.902;12.472;2022-09-09T06:58:42;409.70;2355.20
26272;DHT22;13997;48.902;12.472;2022-09-09T07:01:13;409.80;2355.20
26272;DHT22;13997;48.902;12.472;2022-09-09T07:03:40;410.00;2355.20
26272;DHT22;13997;48.902;12.472;2022-09-09T07:06:06;410.10;2355.20
26272;DHT22;13997;48.902;12.472;2022-09-09T07:08:33;410.20;2355.20
26272;DHT22;13997;48.902;12.472;2022-09-09T07:11:06;410.30;2355.20
26272;DHT22;13997;48.902;12.472;2022-09-09T07:13:32;410.50;2355.20
26272;DHT22;13997;48.902;12.472;2022-09-09T07:16:12;435.20;2355.20
26272;DHT22;13997;48.902;12.472;2022-09-09T07:18:40;435.30;2355.20
26272;DHT22;13997;48.902;12.472;2022-09-09T07:21:05;435.40;2355.20
26272;DHT22;13997;48.902;12.472;2022-09-09T07:23:32;435.50;2355.20
26272;DHT22;13997;48.902;12.472;2022-09-09T07:25:58;435.70;2355.20
26272;DHT22;13997;48.902;12.472;2022-09-09T07:28:25;435.70;2355.20
26272;DHT22;13997;48.902;12.472;2022-09-09T07:31:00;435.70;2355.20
26272;DHT22;13997;48.902;12.472;2022-09-09T07:33:29;435.80;2355.20
26272;DHT22;13997;48.902;12.472;2022-09-09T07:38:44;436.00;2355.20
26272;DHT22;13997;48.902;12.472;2022-09-09T07:41:17;436.10;2355.20
26272;DHT22;13997;48.902;12.472;2022-09-09T07:43:45;460.80;2380.80
26272;DHT22;13997;48.902;12.472;2022-09-09T07:46:12;460.90;2380.80
26272;DHT22;13997;48.902;12.472;2022-09-09T07:48:39;461.20;2380.80
26272;DHT22;13997;48.902;12.472;2022-09-09T07:51:11;461.30;2380.80
26272;DHT22;13997;48.902;12.472;2022-09-09T07:53:38;461.50;2380.80
26272;DHT22;13997;48.902;12.472;2022-09-09T07:56:06;461.70;2380.80
26272;DHT22;13997;48.902;12.472;2022-09-09T07:58:32;486.40;2380.80
26272;DHT22;13997;48.902;12.472;2022-09-09T08:00:57;486.40;2380.80
26272;DHT22;13997;48.902;12.472;2022-09-09T08:03:23;461.70;2380.80
26272;DHT22;13997;48.902;12.472;2022-09-09T08:05:49;461.70;2380.80
26272;DHT22;13997;48.902;12.472;2022-09-09T08:08:15;461.70;2380.80
26272;DHT22;13997;48.902;12.472;2022-09-09T08:10:42;461.70;2380.80
26272;DHT22;13997;48.902;12.472;2022-09-09T08:13:08;486.40;2380.80
26272;DHT22;13997;48.902;12.472;2022-09-09T08:15:34;486.60;2380.80
26272;DHT22;13997;48.902;12.472;2022-09-09T08:18:00;486.70;2380.80
26272;DHT22;13997;48.902;12.472;2022-09-09T08:20:25;486.80;2380.80
26272;DHT22;13997;48.902;12.472;2022-09-09T08:22:51;487.00;2380.80
26272;DHT22;13997;48.902;12.472;2022-09-09T08:25:16;487.10;2380.80
26272;DHT22;13997;48.902;12.472;2022-09-09T08:30:09;487.30;2380.80
26272;DHT22;13997;48.902;12.472;2022-09-09T08:32:35;487.30;2380.80
26272;DHT22;13997;48.902;12.472;2022-09-09T08:35:00;487.20;2380.80
26272;DHT22;13997;48.902;12.472;2022-09-09T08:37:26;487.20;2380.80
26272;DHT22;13997;48.902;12.472;2022-09-09T08:39:51;487.10;2380.80
26272;DHT22;13997;48.902;12.472;2022-09-09T08:42:21;487.00;2380.80
26272;DHT22;13997;48.902;12.472;2022-09-09T08:45:11;486.90;2380.80
26272;DHT22;13997;48.902;12.472;2022-09-09T08:47:48;486.60;2380.80
26272;DHT22;13997;48.902;12.472;2022-09-09T08:50:29;486.60;2380.80
26272;DHT22;13997;48.902;12.472;2022-09-09T08:53:05;486.60;2380.80
26272;DHT22;13997;48.902;12.472;2022-09-09T08:58:21;486.70;2380.80
26272;DHT22;13997;48.902;12.472;2022-09-09T09:04:02;486.70;2380.80
26272;DHT22;13997;48.902;12.472;2022-09-09T09:06:54;486.70;2380.80
26272;DHT22;13997;48.902;12.472;2022-09-09T09:12:00;486.60;2380.80
26272;DHT22;13997;48.902;12.472;2022-09-09T09:14:29;486.50;2380.80
26272;DHT22;13997;48.902;12.472;2022-09-09T09:17:09;486.50;2380.80
26272;DHT22;13997;48.902;12.472;2022-09-09T09:19:40;461.70;2380.80
26272;DHT22;13997;48.902;12.472;2022-09-09T09:22:26;461.60;2380.80
26272;DHT22;13997;48.902;12.472;2022-09-09T09:30:18;461.40;2380.80
26272;DHT22;13997;48.902;12.472;2022-09-09T09:32:58;461.30;2380.80
26272;DHT22;13997;48.902;12.472;2022-09-09T09:35:25;461.30;2380.80
26272;DHT22;13997;48.902;12.472;2022-09-09T09:37:52;461.30;2380.80
26272;DHT22;13997;48.902;12.472;2022-09-09T09:40:20;461.30;2380.80
26272;DHT22;13997;48.902;12.472;2022-09-09T09:42:55;461.30;2380.80
26272;DHT22;13997;48.902;12.472;2022-09-09T09:45:43;461.20;2380.80
26272;DHT22;13997;48.902;12.472;2022-09-09T09:48:11;461.10;2380.80
26272;DHT22;13997;48.902;12.472;2022-09-09T09:53:26;460.80;2380.80
26272;DHT22;13997;48.902;12.472;2022-09-09T09:55:59;436.10;2355.20
26272;DHT22;13997;48.902;12.472;2022-09-09T09:58:27;436.10;2355.20
26272;DHT22;13997;48.902;12.472;2022-09-09T10:00:56;435.90;2355.20
26272;DHT22;13997;48.902;12.472;2022-09-09T10:03:25;435.80;2355.20
26272;DHT22;13997;48.902;12.472;2022-09-09T10:05:52;435.70;2355.20
26272;DHT22;13997;48.902;12.472;2022-09-09T10:08:18;435.60;2355.20
26272;DHT22;13997;48.902;12.472;2022-09-09T10:17:02;435.30;2355.20
26272;DHT22;13997;48.902;12.472;2022-09-09T10:19:31;435.40;2355.20
26272;DHT22;13997;48.902;12.472;2022-09-09T10:22:15;435.40;2355.20
26272;DHT22;13997;48.902;12.472;2022-09-09T10:27:51;435.50;2355.20
26272;DHT22;13997;48.902;12.472;2022-09-09T10:33:44;435.60;2355.20
26272;DHT22;13997;48.902;12.472;2022-09-09T10:36:24;435.60;2355.20
26272;DHT22;13997;48.902;12.472;2022-09-09T10:39:06;435.70;2355.20
26272;DHT22;13997;48.902;12.472;2022-09-09T10:42:01;435.80;2355.20
26272;DHT22;13997;48.902;12.472;2022-09-09T10:44:49;435.80;2355.20
26272;DHT22;13997;48.902;12.472;2022-09-09T10:50:28;435.80;2355.20
26272;DHT22;13997;48.902;12.472;2022-09-09T10:55:44;435.90;2355.20
26272;DHT22;13997;48.902;12.472;2022-09-09T10:58:17;435.80;2355.20
26272;DHT22;13997;48.902;12.472;2022-09-09T11:00:48;435.90;2355.20
26272;DHT22;13997;48.902;12.472;2022-09-09T11:03:25;436.00;2355.20
26272;DHT22;13997;48.902;12.472;2022-09-09T11:05:58;436.00;2355.20
26272;DHT22;13997;48.902;12.472;2022-09-09T11:08:30;436.10;2355.20
26272;DHT22;13997;48.902;12.472;2022-09-09T11:11:03;460.80;2380.80
26272;DHT22;13997;48.902;12.472;2022-09-09T11:31:14;461.40;2380.80
26272;DHT22;13997;48.902;12.472;2022-09-09T11:34:47;461.60;2380.80
26272;DHT22;13997;48.902;12.472;2022-09-09T11:36:56;461.70;2380.80
26272;DHT22;13997;48.902;12.472;2022-09-09T11:44:41;486.50;2380.80
26272;DHT22;13997;48.902;12.472;2022-09-09T11:47:29;486.60;2380.80
26272;DHT22;13997;48.902;12.472;2022-09-09T11:50:07;486.70;2380.80
26272;DHT22;13997;48.902;12.472;2022-09-09T11:52:39;486.70;2380.80
26272;DHT22;13997;48.902;12.472;2022-09-09T11:55:26;486.70;2380.80
26272;DHT22;13997;48.902;12.472;2022-09-09T12:00:42;487.30;2380.80
26272;DHT22;13997;48.902;12.472;2022-09-09T12:03:31;512.30;2380.80
26272;DHT22;13997;48.902;12.472;2022-09-09T12:05:59;512.50;2380.80
26272;DHT22;13997;48.902;12.472;2022-09-09T12:08:29;512.40;2380.80
26272;DHT22;13997;48.902;12.472;2022-09-09T12:10:57;512.40;2380.80
26272;DHT22;13997;48.902;12.472;2022-09-09T12:13:24;512.40;2380.80
26272;DHT22;13997;48.902;12.472;2022-09-09T12:15:55;512.40;2380.80
26272;DHT22;13997;48.902;12.472;2022-09-09T12:18:39;512.50;2380.80
26272;DHT22;13997;48.902;12.472;2022-09-09T12:21:21;512.70;2380.80
26272;DHT22;13997;48.902;12.472;2022-09-09T12:23:55;512.70;2380.80
26272;DHT22;13997;48.902;12.472;2022-09-09T12:29:12;512.70;2380.80
26272;DHT22;13997;48.902;12.472;2022-09-09T12:32:00;512.50;2380.80
26272;DHT22;13997;48.902;12.472;2022-09-09T12:40:22;512.70;2380.80
26272;DHT22;13997;48.902;12.472;2022-09-09T12:42:49;512.70;2380.80
26272;DHT22;13997;48.902;12.472;2022-09-09T12:48:05;512.80;2380.80
26272;DHT22;13997;48.902;12.472;2022-09-09T12:50:35;537.70;2406.40
26272;DHT22;13997;48.902;12.472;2022-09-09T12:53:08;537.70;2406.40
26272;DHT22;13997;48.902;12.472;2022-09-09T12:55:38;537.80;2406.40
26272;DHT22;13997;48.902;12.472;2022-09-09T12:58:05;538.10;2406.40
26272;DHT22;13997;48.902;12.472;2022-09-09T13:00:32;538.10;2406.40
26272;DHT22;13997;48.902;12.472;2022-09-09T13:03:16;538.20;2406.40
26272;DHT22;13997;48.902;12.472;2022-09-09T13:05:42;538.30;2406.40
26272;DHT22;13997;48.902;12.472;2022-09-09T13:08:12;538.20;2406.40
26272;DHT22;13997;48.902;12.472;2022-09-09T13:11:00;538.10;2406.40
26272;DHT22;13997;48.902;12.472;2022-09-09T13:13:42;537.90;2406.40
26272;DHT22;13997;48.902;12.472;2022-09-09T13:16:25;537.80;2406.40
26272;DHT22;13997;48.902;12.472;2022-09-09T13:18:51;537.80;2406.40
26272;DHT22;13997;48.902;12.472;2022-09-09T13:21:18;537.80;2406.40
26272;DHT22;13997;48.902;12.472;2022-09-09T13:23:49;538.00;2406.40
26272;DHT22;13997;48.902;12.472;2022-09-09T13:26:24;538.20;2406.40
26272;DHT22;13997;48.902;12.472;2022-09-09T13:28:51;538.30;2406.40
26272;DHT22;13997;48.902;12.472;2022-09-09T13:31:28;538.40;2406.40
26272;DHT22;13997;48.902;12.472;2022-09-09T13:33:53;563.20;2432.00
26272;DHT22;13997;48.902;12.472;2022-09-09T13:36:34;563.30;2432.00
26272;DHT22;13997;48.902;12.472;2022-09-09T13:39:02;563.40;2432.00
26272;DHT22;13997;48.902;12.472;2022-09-09T13:41:34;563.40;2432.00
26272;DHT22;13997;48.902;12.472;2022-09-09T13:44:01;563.40;2432.00
26272;DHT22;13997;48.902;12.472;2022-09-09T13:51:47;563.50;2432.00
26272;DHT22;13997;48.902;12.472;2022-09-09T13:54:16;563.40;2432.00
26272;DHT22;13997;48.902;12.472;2022-09-09T13:56:42;563.40;2432.00
26272;DHT22;13997;48.902;12.472;2022-09-09T13:59:16;563.40;2432.00
26272;DHT22;13997;48.902;12.472;2022-09-09T14:01:43;563.40;2432.00
26272;DHT22;13997;48.902;12.472;2022-09-09T14:04:09;563.40;2432.00
26272;DHT22;13997;48.902;12.472;2022-09-09T14:06:36;563.50;2432.00
26272;DHT22;13997;48.902;12.472;2022-09-09T14:09:11;563.60;2432.00
26272;DHT22;13997;48.902;12.472;2022-09-09T14:11:37;563.70;2432.00
26272;DHT22;13997;48.902;12.472;2022-09-09T14:14:02;563.70;2432.00
26272;DHT22;13997;48.902;12.472;2022-09-09T14:16:28;563.70;2432.00
26272;DHT22;13997;48.902;12.472;2022-09-09T14:18:54;563.70;2432.00
26272;DHT22;13997;48.902;12.472;2022-09-09T14:21:22;563.70;2432.00
26272;DHT22;13997;48.902;12.472;2022-09-09T14:23:47;563.70;2432.00
26272;DHT22;13997;48.902;12.472;2022-09-09T14:26:14;563.80;2432.00
26272;DHT22;13997;48.902;12.472;2022-09-09T14:28:40;563.80;2432.00
26272;DHT22;13997;48.902;12.472;2022-09-09T14:31:06;563.60;2432.00
26272;DHT22;13997;48.902;12.472;2022-09-09T14:33:32;563.70;2432.00
26272;DHT22;13997;48.902;12.472;2022-09-09T14:36:03;563.80;2432.00
26272;DHT22;13997;48.902;12.472;2022-09-09T14:38:30;563.80;2432.00
26272;DHT22;13997;48.902;12.472;2022-09-09T14:40:56;563.50;2432.00
26272;DHT22;13997;48.902;12.472;2022-09-09T14:43:22;563.40;2432.00
26272;DHT22;13997;48.902;12.472;2022-09-09T14:45:47;563.30;2432.00
26272;DHT22;13997;48.902;12.472;2022-09-09T14:48:19;538.40;2406.40
26272;DHT22;13997;48.902;12.472;2022-09-09T14:50:44;538.40;2406.40
26272;DHT22;13997;48.902;12.472;2022-09-09T14:53:10;538.20;2406.40
26272;DHT22;13997;48.902;12.472;2022-09-09T14:55:36;538.20;2406.40
26272;DHT22;13997;48.902;12.472;2022-09-09T14:58:03;538.10;2406.40
26272;DHT22;13997;48.902;12.472;2022-09-09T15:00:29;538.10;2406.40
26272;DHT22;13997;48.902;12.472;2022-09-09T15:02:54;537.90;2406.40
26272;DHT22;13997;48.902;12.472;2022-09-09T15:05:20;537.80;2406.40
26272;DHT22;13997;48.902;12.472;2022-09-09T15:07:46;537.80;2406.40
26272;DHT22;13997;48.902;12.472;2022-09-09T15:10:14;537.80;2406.40
26272;DHT22;13997;48.902;12.472;2022-09-09T15:12:40;537.70;2406.40
26272;DHT22;13997;48.902;12.472;2022-09-09T15:15:07;537.70;2406.40
26272;DHT22;13997;48.902;12.472;2022-09-09T15:17:33;537.70;2406.40
26272;DHT22;13997;48.902;12.472;2022-09-09T15:19:59;537.60;2406.40
26272;DHT22;13997;48.902;12.472;2022-09-09T15:22:24;537.60;2406.40
26272;DHT22;13997;48.902;12.472;2022-09-09T15:24:50;537.60;2406.40
26272;DHT22;13997;48.902;12.472;2022-09-09T15:27:16;537.60;2406.40
26272;DHT22;13997;48.902;12.472;2022-09-09T15:29:42;537.60;2406.40
26272;DHT22;13997;48.902;12.472;2022-09-09T15:32:09;537.60;2406.40
26272;DHT22;13997;48.902;12.472;2022-09-09T15:34:35;537.70;2406.40
26272;DHT22;13997;48.902;12.472;2022-09-09T15:37:00;537.60;2406.40
26272;DHT22;13997;48.902;12.472;2022-09-09T15:39:26;512.90;2380.80
26272;DHT22;13997;48.902;12.472;2022-09-09T15:41:52;512.80;2380.80
26272;DHT22;13997;48.902;12.472;2022-09-09T15:44:18;512.70;2380.80
26272;DHT22;13997;48.902;12.472;2022-09-09T15:46:53;512.70;2380.80
26272;DHT22;13997;48.902;12.472;2022-09-09T15:49:24;512.50;2380.80
26272;DHT22;13997;48.902;12.472;2022-09-09T15:51:58;512.30;2380.80
26272;DHT22;13997;48.902;12.472;2022-09-09T15:54:31;512.20;2380.80
26272;DHT22;13997;48.902;12.472;2022-09-09T15:57:00;512.20;2380.80
26272;DHT22;13997;48.902;12.472;2022-09-09T15:59:28;512.20;2380.80
26272;DHT22;13997;48.902;12.472;2022-09-09T16:01:54;512.10;2380.80
26272;DHT22;13997;48.902;12.472;2022-09-09T16:04:22;512.00;2380.80
26272;DHT22;13997;48.902;12.472;2022-09-09T16:06:55;512.00;2380.80
26272;DHT22;13997;48.902;12.472;2022-09-09T16:09:36;487.30;2380.80
26272;DHT22;13997;48.902;12.472;2022-09-09T16:12:03;487.30;2380.80
26272;DHT22;13997;48.902;12.472;2022-09-09T16:14:33;487.30;2380.80
26272;DHT22;13997;48.902;12.472;2022-09-09T16:17:01;487.30;2380.80
26272;DHT22;13997;48.902;12.472;2022-09-09T16:19:27;487.30;2380.80
26272;DHT22;13997;48.902;12.472;2022-09-09T16:21:53;487.20;2380.80
26272;DHT22;13997;48.902;12.472;2022-09-09T16:24:19;487.20;2380.80
26272;DHT22;13997;48.902;12.472;2022-09-09T16:26:47;487.10;2380.80
26272;DHT22;13997;48.902;12.472;2022-09-09T16:29:14;487.20;2380.80
26272;DHT22;13997;48.902;12.472;2022-09-09T16:31:40;487.10;2380.80
26272;DHT22;13997;48.902;12.472;2022-09-09T16:34:07;487.10;2380.80
26272;DHT22;13997;48.902;12.472;2022-09-09T16:36:35;487.10;2380.80
26272;DHT22;13997;48.902;12.472;2022-09-09T16:39:04;487.00;2380.80
26272;DHT22;13997;48.902;12.472;2022-09-09T16:41:31;487.00;2380.80
26272;DHT22;13997;48.902;12.472;2022-09-09T16:44:02;487.00;2380.80
26272;DHT22;13997;48.902;12.472;2022-09-09T16:46:29;487.00;2380.80
26272;DHT22;13997;48.902;12.472;2022-09-09T16:48:59;487.00;2380.80
26272;DHT22;13997;48.902;12.472;2022-09-09T16:51:28;487.00;2380.80
26272;DHT22;13997;48.902;12.472;2022-09-09T16:53:54;487.00;2380.80
26272;DHT22;13997;48.902;12.472;2022-09-09T16:56:25;486.90;2380.80
26272;DHT22;13997;48.902;12.472;2022-09-09T16:58:56;486.90;2380.80
26272;DHT22;13997;48.902;12.472;2022-09-09T17:01:26;486.90;2380.80
26272;DHT22;13997;48.902;12.472;2022-09-09T17:03:55;486.90;2380.80
26272;DHT22;13997;48.902;12.472;2022-09-09T17:06:22;486.80;2380.80
26272;DHT22;13997;48.902;12.472;2022-09-09T17:08:54;486.80;2380.80
26272;DHT22;13997;48.902;12.472;2022-09-09T17:11:20;486.80;2380.80
26272;DHT22;13997;48.902;12.472;2022-09-09T17:13:46;486.70;2380.80
26272;DHT22;13997;48.902;12.472;2022-09-09T17:16:15;486.70;2380.80
26272;DHT22;13997;48.902;12.472;2022-09-09T17:18:41;486.60;2380.80
26272;DHT22;13997;48.902;12.472;2022-09-09T17:21:09;486.60;2380.80
26272;DHT22;13997;48.902;12.472;2022-09-09T17:23:36;486.60;2380.80
26272;DHT22;13997;48.902;12.472;2022-09-09T17:26:09;486.60;2380.80
26272;DHT22;13997;48.902;12.472;2022-09-09T17:28:36;486.70;2380.80
26272;DHT22;13997;48.902;12.472;2022-09-09T17:31:02;486.60;2380.80
26272;DHT22;13997;48.902;12.472;2022-09-09T17:33:29;486.50;2380.80
26272;DHT22;13997;48.902;12.472;2022-09-09T17:36:00;486.50;2380.80
26272;DHT22;13997;48.902;12.472;2022-09-09T17:38:27;486.50;2380.80
26272;DHT22;13997;48.902;12.472;2022-09-09T17:41:08;486.40;2380.80
26272;DHT22;13997;48.902;12.472;2022-09-09T17:43:35;486.40;2380.80
26272;DHT22;13997;48.902;12.472;2022-09-09T17:46:09;461.70;2380.80
26272;DHT22;13997;48.902;12.472;2022-09-09T17:48:36;461.60;2380.80
26272;DHT22;13997;48.902;12.472;2022-09-09T17:51:03;461.60;2380.80